• Join FlightAware (Why Join?)
  • Login
  • US Flag 
01:30PM EDT


 

Airport Tracker/Info


-or-


 

Live Flight TrackerFlight Track Log ✈ USC491 ✈ 22-Jan-2014 ✈ KHOU - KADS

Flight Track Log - Related Links

Times and Time Zones

All times are in EST time to prevent confusion due to time zone crossing. See the USC491 flight status page for this flight to view local times or setup timezone preferences in your user account.

Time Position Orientation Groundspeed Altitude Reporting Facility
EST Latitude Longitude Course Direction KTS MPH feet Rate Location/Type
10:51PM 29.6353 -95.2892 344° North 91 105 500  Level Houston Center
10:52PM 29.6267 -95.3094 244° Southwest 84 97 1,600 1,200 Climbing Houston Center
10:53PM 29.6206 -95.3250 246° West 89 102 2,200 1,140 Climbing Houston Center
10:53PM 29.6164 -95.3347 244° Southwest 86 99 2,800 780 Climbing Houston Center
10:54PM 29.6114 -95.3517 251° West 89 102 3,000 240 Climbing Houston Center
10:54PM 29.6156 -95.3708 284° West 139 160 3,100 240 Climbing Houston Center
10:55PM 29.6203 -95.3989 281° West 131 151 3,300 960 Climbing Houston Center
10:55PM 29.6236 -95.4131 285° West 130 150 4,100 1,140 Climbing Houston Center
10:56PM 29.6289 -95.4308 289° West 117 135 4,500 900 Climbing Houston Center
10:56PM 29.6331 -95.4481 286° West 96 110 5,100 480 Climbing Houston Center
10:57PM 29.8587 -95.3584 344° North  Level FlightAware Approximate
10:57PM 29.6381 -95.4636 290° West 106 122 5,000  Level Houston Center
10:57PM 29.6431 -95.4878 283° West 142 163 5,100 -120 Climbing Houston Center
10:58PM 29.6489 -95.5111 286° West 140 161 4,900  Descending Houston Center
10:58PM 29.6536 -95.5344 283° West 159 183 5,100 60 Climbing Houston Center
10:59PM 29.6592 -95.5586 285° West 152 175 5,000 -120 Descending Houston Center
10:59PM 29.6642 -95.5814 284° West 156 180 5,000 -120 Level Houston Center
11:00PM 29.6700 -95.6072 285° West 156 180 4,900  Descending Houston Center
11:00PM 29.6750 -95.6306 284° West 157 181 5,000  Climbing Houston Center
11:01PM 29.6808 -95.6561 285° West 157 181 4,900  Descending Houston Center
11:01PM 29.6856 -95.6797 283° West 157 181 5,000 660 Climbing Houston Center
11:02PM 29.6911 -95.7019 286° West 152 175 5,600 1,080 Climbing Houston Center
11:02PM 29.6978 -95.7217 291° West 115 132 6,100 360 Climbing Houston Center
11:03PM 29.7147 -95.7297 338° Northwest 135 155 6,000 -120 Descending Houston Center
11:03PM 29.7392 -95.7386 342° North 163 188 6,000 60 Level Houston Center
11:04PM 29.7586 -95.7447 345° North 160 184 6,100 60 Climbing Houston Center
11:04PM 29.7842 -95.7500 350° North 177 204 6,100 -120 Level Houston Center
11:05PM 29.8047 -95.7531 353° North 164 189 6,000 -120 Descending Houston Center
11:05PM 29.8353 -95.7586 351° North 172 198 6,000 60 Level Houston Center
11:06PM 29.8539 -95.7597 357° North 173 199 6,100  Climbing Houston Center
11:06PM 29.8864 -95.7669 349° North 170 196 6,000 -120 Descending Houston Center
11:07PM 29.9094 -95.7703 353° North 170 196 6,000 60 Level Houston Center
11:07PM 29.9333 -95.7736 353° North 171 197 6,100  Climbing Houston Center
11:08PM 29.9561 -95.7783 350° North 170 196 6,000  Descending Houston Center
11:08PM 29.9783 -95.7853 345° North 169 194 6,100 60 Climbing Houston Center
11:09PM 30.0028 -95.7889 353° North 169 194 6,100  Level Houston Center
11:09PM 30.0256 -95.7967 344° North 169 194 6,100  Level Houston Center
11:10PM 30.0486 -95.8017 349° North 169 194 6,100  Level Houston Center
11:10PM 30.0706 -95.8083 345° North 169 194 6,100 -120 Level Houston Center
11:11PM 30.0939 -95.8142 348° North 168 193 6,000  Descending Houston Center
11:11PM 30.1242 -95.8189 352° North 172 198 6,100  Climbing Houston Center
11:12PM 30.1414 -95.8228 349° North 170 196 6,000 -120 Descending Houston Center
11:12PM 30.1669 -95.8286 349° North 169 194 6,000  Level Houston Center
11:13PM 30.1875 -95.8303 356° North 168 193 6,000  Level Houston Center
11:13PM 30.2139 -95.8375 347° North 170 196 6,000 60 Level Houston Center
11:14PM 30.2347 -95.8397 355° North 170 196 6,100 60 Climbing Houston Center
11:14PM 30.2628 -95.8439 353° North 170 196 6,100  Level Houston Center
11:15PM 30.2814 -95.8469 352° North 170 196 6,100  Level Houston Center
11:15PM 30.3031 -95.8514 350° North 169 194 6,100  Level Houston Center
11:16PM 30.3292 -95.8531 357° North 173 199 6,100 -120 Level Houston Center
11:16PM 30.3561 -95.8572 352° North 172 198 6,000 -120 Descending Houston Center
11:17PM 30.3767 -95.8578 359° North 173 199 6,000  Level Houston Center
11:17PM 30.4047 -95.8614 354° North 171 197 6,000  Level Houston Center
11:18PM 30.4256 -95.8625 357° North 174 200 6,000 60 Level Houston Center
11:18PM 30.4492 -95.8658 353° North 172 198 6,100 60 Climbing Houston Center
11:19PM 30.4717 -95.8678 356° North 169 194 6,100  Level Houston Center
11:19PM 30.5003 -95.8719 353° North 171 197 6,100 -120 Level Houston Center
11:20PM 30.5197 -95.8722 359° North 172 198 6,000  Descending Houston Center
11:20PM 30.5444 -95.8742 356° North 171 197 6,100  Climbing Houston Center
11:21PM 30.5669 -95.8778 352° North 171 197 6,000 -120 Descending Houston Center
11:21PM 30.5933 -95.8806 355° North 171 197 6,000 60 Level Houston Center
11:22PM 30.6233 -95.8833 355° North 168 193 6,100  Climbing Houston Center
11:23PM 30.6714 -95.8886 355° North 172 198 6,000 -60 Descending Houston Center
11:24PM 30.7172 -95.8939 354° North 174 200 6,000  Level Houston Center
11:25PM 30.7647 -95.8997 354° North 172 198 6,100  Climbing Houston Center
11:26PM 30.8125 -95.9061 353° North 173 199 6,100  Level Houston Center
11:27PM 30.8606 -95.9106 355° North 174 200 6,100  Level Houston Center
11:28PM 30.9092 -95.9144 356° North 175 201 6,100  Level Houston Center
11:29PM 30.9567 -95.9208 353° North 172 198 6,100  Level Houston Center
11:30PM 31.0033 -95.9314 349° North 172 198 6,100 -60 Level Houston Center
11:31PM 31.0486 -95.9444 346° North 170 196 6,000  Descending Houston Center
11:32PM 31.0933 -95.9614 342° North 170 196 6,100  Climbing Houston Center
11:33PM 31.1383 -95.9750 345° North 167 192 6,000 -60 Descending Houston Center
11:34PM 31.1867 -95.9814 354° North 172 198 6,000  Level Houston Center
11:35PM 31.2342 -95.9908 350° North 173 199 6,100  Climbing Houston Center
11:36PM 31.2797 -96.0017 349° North 169 194 6,000  Descending Houston Center
11:37PM 31.3272 -96.0133 348° North 172 198 6,100  Climbing Houston Center
11:38PM 31.3731 -96.0239 349° North 169 194 6,100  Level Houston Center
11:39PM 31.4283 -96.0347 351° North 168 193 6,100 -60 Level Houston Center
11:40PM 31.4742 -96.0439 350° North 168 193 6,000 -60 Descending Houston Center
11:41PM 31.5214 -96.0508 353° North 169 194 6,000  Level Houston Center
11:42PM 31.5686 -96.0581 353° North 170 196 6,100  Climbing Houston Center
11:43PM 31.6150 -96.0669 351° North 169 194 6,000  Descending Houston Center
11:44PM 31.6603 -96.0742 352° North 167 192 6,100  Climbing Houston Center
11:45PM 31.7061 -96.0822 351° North 163 188 6,000 -120 Descending Fort Worth Center
11:46PM 31.7514 -96.0897 352° North 164 189 5,900  Descending Fort Worth Center
11:47PM 31.7972 -96.1006 349° North 165 190 6,000  Climbing Fort Worth Center
11:48PM 31.8428 -96.1114 349° North 165 190 6,000  Level Fort Worth Center
11:49PM 31.8878 -96.1258 345° North 167 192 6,000 -60 Level Fort Worth Center
11:50PM 31.9317 -96.1419 343° North 165 190 5,900  Descending Fort Worth Center
11:51PM 31.9772 -96.1556 346° North 165 190 6,000  Climbing Fort Worth Center
11:52PM 32.0206 -96.1714 343° North 164 189 5,900  Descending Fort Worth Center
11:53PM 32.0669 -96.1819 349° North 169 194 6,000  Climbing Fort Worth Center
11:54PM 32.1119 -96.1961 345° North 168 193 6,000  Level Fort Worth Center
11:55PM 32.1572 -96.2078 348° North 168 193 6,000  Level Fort Worth Center
11:56PM 32.2031 -96.2242 343° North 170 196 6,000  Level Fort Worth Center
11:57PM 32.2497 -96.2492 336° Northwest 168 193 6,100  Climbing Fort Worth Center
11:58PM 32.2889 -96.2794 327° Northwest 167 192 6,100 -60 Level Fort Worth Center
11:59PM 32.3278 -96.3117 325° Northwest 170 196 6,000 -120 Descending Fort Worth Center
12:00AM 32.3692 -96.3425 328° Northwest 176 203 5,900 -60 Descending Fort Worth Center
12:01AM 32.4150 -96.3708 332° Northwest 173 199 5,900  Level Fort Worth Center
12:02AM 32.4589 -96.3964 334° Northwest 175 201 6,000  Climbing Fort Worth Center
12:03AM 32.5025 -96.4219 334° Northwest 175 201 6,000 -60 Level Fort Worth Center
12:04AM 32.5439 -96.4508 330° Northwest 173 199 5,900  Descending Fort Worth Center
12:06AM 32.5833 -96.4811 327° Northwest 169 194 6,000 -300 Climbing Fort Worth Center
12:07AM 32.6239 -96.5150 325° Northwest 177 204 5,300 -720 Descending Fort Worth Center
12:08AM 32.6653 -96.5542 321° Northwest 188 216 4,600 -780 Descending Fort Worth Center
12:09AM 32.7069 -96.5939 321° Northwest 191 220 3,800 -780 Descending Fort Worth Center
12:10AM 32.7472 -96.6339 320° Northwest 189 217 3,100 -420 Descending Fort Worth Center
12:11AM 32.7875 -96.6711 322° Northwest 183 211 3,000 -120 Descending Fort Worth Center
12:12AM 32.8253 -96.7064 322° Northwest 173 199 2,900 -300 Descending Fort Worth Center
12:13AM 32.8656 -96.7414 324° Northwest 178 205 2,400 -600 Descending Fort Worth Center
12:14AM 32.9097 -96.7744 328° Northwest 173 199 1,800 -420 Descending Fort Worth Center
12:15AM 32.9325 -96.8117 306° West 149 171 1,600 -540 Descending Fort Worth Center
12:16AM 32.9547 -96.8300 325° Northwest 104 120 800 -540 Descending Fort Worth Center
12:17AM 32.9706 -96.8372 339° North 97 112 600 -240 Descending Fort Worth Center